Time;durP1;ratioP1;P1;durP2;ratioP2;P2;SDS_P1;SDS_P2;PMS_P1;PMS_P2;Temp;Humidity;BMP_temperature;BMP_pressure;BME280_temperature;BME280_humidity;BME280_pressure;Samples;Min_cycle;Max_cycle;Signal;HPM_P1;HPM_P2
2022/09/17 00:00:59;;;;;;;3.80;1.10;;;12.90;99.90;;;;;;5045801;28;20484;-82
2022/09/17 00:03:27;;;;;;;6.77;1.10;;;12.90;99.90;;;;;;5053492;28;20484;-80
2022/09/17 00:06:02;;;;;;;3.50;1.27;;;12.80;99.90;;;;;;5058739;28;20445;-81
2022/09/17 00:08:28;;;;;;;3.80;2.20;;;12.90;99.90;;;;;;5061113;28;20453;-81
2022/09/17 00:10:55;;;;;;;3.27;1.77;;;12.90;99.90;;;;;;5060630;28;20544;-82
2022/09/17 00:13:22;;;;;;;2.53;1.30;;;12.90;99.90;;;;;;5071128;28;20460;-82
2022/09/17 00:15:51;;;;;;;5.13;2.00;;;12.90;99.90;;;;;;5055824;28;20534;-83
2022/09/17 00:18:17;;;;;;;2.90;1.13;;;12.90;99.90;;;;;;5054269;28;20486;-83
2022/09/17 00:20:46;;;;;;;3.73;1.50;;;12.90;99.90;;;;;;5057288;28;20544;-84
2022/09/17 00:23:13;;;;;;;2.00;1.20;;;12.90;99.90;;;;;;5057172;28;20456;-83
2022/09/17 00:25:43;;;;;;;6.70;2.27;;;12.90;99.90;;;;;;5056543;28;20942;-84
2022/09/17 00:28:13;;;;;;;2.23;1.97;;;12.90;99.90;;;;;;5050626;28;20476;-82
2022/09/17 00:30:42;;;;;;;1.50;1.40;;;12.80;99.90;;;;;;5056686;28;20518;-83
2022/09/17 00:33:15;;;;;;;4.13;1.00;;;12.80;99.90;;;;;;5058033;28;20499;-82
2022/09/17 00:35:43;;;;;;;2.23;1.23;;;12.90;99.90;;;;;;5054011;28;21042;-82
2022/09/17 00:38:10;;;;;;;1.43;1.33;;;12.90;99.90;;;;;;5053702;28;20511;-84
2022/09/17 00:40:37;;;;;;;7.10;2.37;;;12.90;99.90;;;;;;5063072;28;20463;-82
2022/09/17 00:43:10;;;;;;;5.03;1.50;;;12.90;99.90;;;;;;5058331;28;20453;-83
2022/09/17 00:45:37;;;;;;;2.90;1.73;;;12.90;99.90;;;;;;5058627;28;20445;-83
2022/09/17 00:48:05;;;;;;;2.23;1.80;;;12.90;99.90;;;;;;5055535;28;20484;-83
2022/09/17 00:50:36;;;;;;;2.00;1.30;;;12.90;99.90;;;;;;5057208;28;20675;-83
2022/09/17 00:53:09;;;;;;;2.80;2.17;;;12.90;99.90;;;;;;5052546;28;20455;-82
2022/09/17 00:55:47;;;;;;;3.60;1.60;;;12.90;99.90;;;;;;5059501;28;20461;-83
2022/09/17 00:58:17;;;;;;;3.60;1.70;;;13.00;99.90;;;;;;5058375;28;20475;-83
2022/09/17 01:00:45;;;;;;;6.37;2.00;;;13.00;99.90;;;;;;5057433;28;20503;-83
2022/09/17 01:03:13;;;;;;;2.70;1.20;;;12.90;99.90;;;;;;5039989;28;20918;-83
2022/09/17 01:05:54;;;;;;;6.97;1.83;;;12.90;99.90;;;;;;5045814;28;20530;-83
2022/09/17 01:08:47;;;;;;;2.57;1.53;;;12.90;99.90;;;;;;5066602;28;20479;-83
2022/09/17 01:11:42;;;;;;;4.07;1.43;;;12.90;99.90;;;;;;5059043;28;20928;-83
2022/09/17 01:14:24;;;;;;;3.07;1.60;;;12.90;99.90;;;;;;5056040;28;20883;-83
2022/09/17 01:17:28;;;;;;;6.43;1.60;;;12.90;99.90;;;;;;5055730;28;20461;-81
2022/09/17 01:20:32;;;;;;;2.27;1.23;;;12.90;99.90;;;;;;5071120;28;20436;-82
2022/09/17 01:23:28;;;;;;;4.43;1.27;;;12.90;99.90;;;;;;5049143;28;20475;-82
2022/09/17 01:25:57;;;;;;;4.40;2.00;;;12.80;99.90;;;;;;5053664;28;20509;-81
2022/09/17 01:28:45;;;;;;;5.53;2.07;;;12.80;99.90;;;;;;5054546;28;20457;-82
2022/09/17 01:31:20;;;;;;;3.47;2.00;;;12.80;99.90;;;;;;5058933;28;20608;-82
2022/09/17 01:34:00;;;;;;;2.80;1.40;;;12.90;99.90;;;;;;5054928;28;20463;-83
2022/09/17 01:36:38;;;;;;;2.90;1.40;;;12.90;99.90;;;;;;5054235;28;20586;-82
2022/09/17 01:39:23;;;;;;;3.80;1.33;;;12.90;99.90;;;;;;5054652;28;20440;-82
2022/09/17 01:42:10;;;;;;;4.37;1.50;;;12.90;99.90;;;;;;5048372;28;20556;-81
2022/09/17 01:44:51;;;;;;;5.80;1.73;;;12.90;99.90;;;;;;5054510;28;20479;-83
2022/09/17 01:47:23;;;;;;;3.80;1.83;;;12.90;99.90;;;;;;5053164;28;20922;-83
2022/09/17 01:49:55;;;;;;;2.37;1.60;;;12.90;99.90;;;;;;5040388;28;21000;-83
2022/09/17 01:52:24;;;;;;;2.40;1.63;;;12.90;99.90;;;;;;5055339;28;21293;-83
2022/09/17 01:54:55;;;;;;;3.57;2.53;;;12.90;99.90;;;;;;5055054;28;20448;-82
2022/09/17 01:57:28;;;;;;;3.77;1.90;;;12.80;99.90;;;;;;5048873;28;20501;-83
2022/09/17 02:00:01;;;;;;;3.03;1.63;;;12.90;99.90;;;;;;5051664;28;20448;-83
2022/09/17 02:02:39;;;;;;;7.23;1.53;;;12.80;99.90;;;;;;5053585;28;20502;-83
2022/09/17 02:05:12;;;;;;;1.93;1.70;;;12.90;99.90;;;;;;5042001;28;20490;-82
2022/09/17 02:07:54;;;;;;;2.63;1.50;;;12.90;99.90;;;;;;5047045;28;20518;-82
2022/09/17 02:10:28;;;;;;;4.40;1.93;;;12.90;99.90;;;;;;5053877;28;20962;-83
2022/09/17 02:13:07;;;;;;;3.90;1.77;;;12.90;99.90;;;;;;5052525;28;20531;-84
2022/09/17 02:15:38;;;;;;;3.53;1.60;;;12.80;99.90;;;;;;5051551;28;20460;-84
2022/09/17 02:18:22;;;;;;;4.27;1.67;;;12.80;99.90;;;;;;5062616;28;20496;-84
2022/09/17 02:20:55;;;;;;;4.13;1.73;;;12.80;99.90;;;;;;5054430;28;20494;-84
2022/09/17 02:23:28;;;;;;;4.20;1.43;;;12.80;99.90;;;;;;5055111;28;20483;-82
2022/09/17 02:26:09;;;;;;;5.83;2.10;;;12.80;99.90;;;;;;5053458;28;20471;-82
2022/09/17 02:28:44;;;;;;;6.77;1.97;;;12.70;99.90;;;;;;5056223;28;20475;-81
2022/09/17 02:31:11;;;;;;;5.10;1.13;;;12.70;99.90;;;;;;5053601;28;20878;-82
2022/09/17 02:33:40;;;;;;;3.77;1.70;;;12.70;99.90;;;;;;5051395;28;20525;-83
2022/09/17 02:36:07;;;;;;;5.50;1.93;;;12.70;99.90;;;;;;5052914;28;20444;-83
2022/09/17 02:38:34;;;;;;;2.93;1.53;;;12.60;99.90;;;;;;5052714;28;20480;-81
2022/09/17 02:41:24;;;;;;;7.40;2.23;;;12.60;99.90;;;;;;5050754;28;20920;-84
2022/09/17 02:44:12;;;;;;;5.10;1.77;;;12.60;99.90;;;;;;5043837;28;20817;-83
2022/09/17 02:47:12;;;;;;;3.80;1.60;;;12.60;99.90;;;;;;5050865;28;20475;-80
2022/09/17 02:50:00;;;;;;;5.80;1.40;;;12.70;99.90;;;;;;5049000;28;20500;-84
2022/09/17 02:52:53;;;;;;;4.70;1.80;;;12.70;99.90;;;;;;5053114;28;21199;-84
2022/09/17 02:55:51;;;;;;;6.00;1.70;;;12.70;99.90;;;;;;5060720;28;20433;-80
2022/09/17 02:58:33;;;;;;;6.00;1.73;;;12.70;99.90;;;;;;5051079;28;20544;-81
2022/09/17 03:01:06;;;;;;;1.03;0.93;;;12.70;99.90;;;;;;5053375;28;20471;-81
2022/09/17 03:03:40;;;;;;;4.70;1.73;;;12.70;99.90;;;;;;5054265;28;20448;-81
2022/09/17 03:06:06;;;;;;;4.10;1.53;;;12.70;99.90;;;;;;5074915;28;20460;-81
2022/09/17 03:08:39;;;;;;;3.33;1.80;;;12.60;99.90;;;;;;5063808;28;20492;-83
2022/09/17 03:11:08;;;;;;;3.63;1.50;;;12.70;99.90;;;;;;5047872;28;20480;-83
2022/09/17 03:13:35;;;;;;;4.93;1.63;;;12.60;99.90;;;;;;5055309;28;20495;-83
2022/09/17 03:16:02;;;;;;;6.17;1.40;;;12.70;99.90;;;;;;5052533;28;20479;-83
2022/09/17 03:18:30;;;;;;;5.30;1.83;;;12.70;99.90;;;;;;5050986;28;20484;-83
2022/09/17 03:20:56;;;;;;;5.00;2.00;;;12.70;99.90;;;;;;5053876;28;20452;-83
2022/09/17 03:23:23;;;;;;;6.93;1.80;;;12.70;99.90;;;;;;5053634;28;20444;-82
2022/09/17 03:25:50;;;;;;;4.20;2.00;;;12.70;99.90;;;;;;5048537;28;20478;-84
2022/09/17 03:28:17;;;;;;;2.80;1.40;;;12.70;99.90;;;;;;5052767;28;20476;-82
2022/09/17 03:30:44;;;;;;;9.23;1.97;;;12.70;99.90;;;;;;5053850;28;20464;-83
2022/09/17 03:33:12;;;;;;;4.67;1.73;;;12.70;99.90;;;;;;5043432;28;20440;-83
2022/09/17 03:35:42;;;;;;;4.90;1.67;;;12.70;99.90;;;;;;5070996;28;20482;-81
2022/09/17 03:38:09;;;;;;;3.43;1.70;;;12.70;99.90;;;;;;5063271;28;20488;-82
2022/09/17 03:40:35;;;;;;;3.13;1.60;;;12.70;99.90;;;;;;5064782;28;20464;-83
2022/09/17 03:43:03;;;;;;;6.00;1.50;;;12.70;99.90;;;;;;5060406;28;21296;-82
2022/09/17 03:45:30;;;;;;;2.07;1.60;;;12.70;99.90;;;;;;5058407;28;20482;-80
2022/09/17 03:47:56;;;;;;;2.50;1.93;;;12.70;99.90;;;;;;5063243;28;20470;-80
2022/09/17 03:50:23;;;;;;;5.83;2.00;;;12.70;99.90;;;;;;5058036;28;20479;-81
2022/09/17 03:52:50;;;;;;;3.60;1.83;;;12.70;99.90;;;;;;5059349;28;20475;-83
2022/09/17 03:55:17;;;;;;;4.67;2.00;;;12.70;99.90;;;;;;5052391;28;20480;-82
2022/09/17 03:57:43;;;;;;;6.40;2.40;;;12.70;99.90;;;;;;5055985;28;20538;-83
2022/09/17 04:00:11;;;;;;;8.97;1.83;;;12.70;99.90;;;;;;5062382;28;20491;-81
2022/09/17 04:02:38;;;;;;;4.87;1.30;;;12.70;99.90;;;;;;5061300;28;20453;-84
2022/09/17 04:05:05;;;;;;;4.47;1.30;;;12.70;99.90;;;;;;5066371;28;20448;-80
2022/09/17 04:07:32;;;;;;;5.67;1.83;;;12.70;99.90;;;;;;5061897;28;20495;-81
2022/09/17 04:09:59;;;;;;;5.73;1.90;;;12.70;99.90;;;;;;5044758;28;20499;-83
2022/09/17 04:12:25;;;;;;;6.13;1.70;;;12.70;99.90;;;;;;5052697;28;20886;-83
2022/09/17 04:14:55;;;;;;;7.60;2.07;;;12.70;99.90;;;;;;5056197;28;20456;-83
2022/09/17 04:17:26;;;;;;;5.40;1.80;;;12.70;99.90;;;;;;5056069;28;20546;-82
2022/09/17 04:19:54;;;;;;;4.50;1.60;;;12.70;99.90;;;;;;5057867;28;20485;-82
2022/09/17 04:22:20;;;;;;;7.77;3.43;;;12.70;99.90;;;;;;5059161;28;20452;-82
2022/09/17 04:24:50;;;;;;;6.40;1.80;;;12.70;99.90;;;;;;5057415;28;20448;-82
2022/09/17 04:27:20;;;;;;;4.77;2.07;;;12.80;99.90;;;;;;5058214;28;20532;-82
2022/09/17 04:29:49;;;;;;;1.87;1.20;;;12.80;99.90;;;;;;5056859;28;20533;-82
2022/09/17 04:32:18;;;;;;;4.80;1.60;;;12.70;99.90;;;;;;5059237;28;20449;-83
2022/09/17 04:34:45;;;;;;;3.00;2.13;;;12.80;99.90;;;;;;5058298;28;20436;-83
2022/09/17 04:37:14;;;;;;;7.10;2.90;;;12.70;99.90;;;;;;5052972;28;20449;-83
2022/09/17 04:39:41;;;;;;;5.40;1.93;;;12.80;99.90;;;;;;5057970;28;20459;-82
2022/09/17 04:42:09;;;;;;;3.50;1.43;;;12.70;99.90;;;;;;5055218;28;20463;-82
2022/09/17 04:44:35;;;;;;;4.10;1.53;;;12.70;99.90;;;;;;5056342;28;20445;-83
2022/09/17 04:47:02;;;;;;;1.90;1.20;;;12.70;99.90;;;;;;5053658;28;20468;-84
2022/09/17 04:49:29;;;;;;;8.33;3.20;;;12.70;99.90;;;;;;5066025;28;20483;-82
2022/09/17 04:51:56;;;;;;;6.70;1.83;;;12.60;99.90;;;;;;5056245;28;20484;-84
2022/09/17 04:54:23;;;;;;;3.10;1.37;;;12.70;99.90;;;;;;5054344;28;20953;-83
2022/09/17 04:56:50;;;;;;;5.27;2.17;;;12.70;99.90;;;;;;5056958;28;20452;-84
2022/09/17 04:59:17;;;;;;;5.37;1.70;;;12.70;99.90;;;;;;5054858;28;20472;-83
2022/09/17 05:01:44;;;;;;;5.10;2.00;;;12.60;99.90;;;;;;5054023;28;20523;-83
2022/09/17 05:04:10;;;;;;;4.73;1.77;;;12.60;99.90;;;;;;5044700;28;20536;-84
2022/09/17 05:06:37;;;;;;;2.90;1.17;;;12.60;99.90;;;;;;5056335;28;20451;-83
2022/09/17 05:09:04;;;;;;;4.27;1.60;;;12.60;99.90;;;;;;5050299;28;20965;-83
2022/09/17 05:11:30;;;;;;;3.80;1.97;;;12.60;99.90;;;;;;5055049;28;20472;-83
2022/09/17 05:13:57;;;;;;;3.83;1.30;;;12.60;99.90;;;;;;5056915;28;20467;-82
2022/09/17 05:16:24;;;;;;;7.93;1.50;;;12.60;99.90;;;;;;5055079;28;20540;-81
2022/09/17 05:18:50;;;;;;;4.37;1.20;;;12.70;99.90;;;;;;5048174;28;20533;-82
2022/09/17 05:21:19;;;;;;;7.43;1.63;;;12.70;99.90;;;;;;5055027;28;21005;-82
2022/09/17 05:23:46;;;;;;;5.40;1.83;;;12.70;99.90;;;;;;5055745;28;20626;-83
2022/09/17 05:26:14;;;;;;;4.40;2.10;;;12.70;99.90;;;;;;5054251;28;20518;-82
2022/09/17 05:28:41;;;;;;;3.53;1.70;;;12.60;99.90;;;;;;5053976;28;20452;-83
2022/09/17 05:31:08;;;;;;;2.40;2.03;;;12.60;99.90;;;;;;5052979;28;20495;-83
2022/09/17 05:33:34;;;;;;;4.00;1.37;;;12.60;99.90;;;;;;5055128;28;20445;-81
2022/09/17 05:36:01;;;;;;;3.03;1.90;;;12.60;99.90;;;;;;5052921;28;20444;-82
2022/09/17 05:38:27;;;;;;;8.57;1.37;;;12.60;99.90;;;;;;5049186;28;21023;-82
2022/09/17 05:40:54;;;;;;;3.97;2.23;;;12.60;99.90;;;;;;5053953;28;20490;-83
2022/09/17 05:43:21;;;;;;;2.47;1.17;;;12.70;99.90;;;;;;5054582;28;20969;-82
2022/09/17 05:45:47;;;;;;;2.67;1.50;;;12.60;99.90;;;;;;5054039;28;20480;-83
2022/09/17 05:48:14;;;;;;;3.87;1.43;;;12.70;99.90;;;;;;5054945;28;20464;-83
2022/09/17 05:50:41;;;;;;;2.90;1.70;;;12.70;99.90;;;;;;5055451;28;20518;-83
2022/09/17 05:53:11;;;;;;;4.33;2.23;;;12.70;99.90;;;;;;5054731;28;20491;-83
2022/09/17 05:55:38;;;;;;;4.63;1.50;;;12.80;99.90;;;;;;5053128;28;20476;-82
2022/09/17 05:58:12;;;;;;;4.77;1.83;;;12.80;99.90;;;;;;5051569;28;20519;-82
2022/09/17 06:00:40;;;;;;;2.97;1.30;;;12.80;99.90;;;;;;5056369;28;20456;-83
2022/09/17 06:03:09;;;;;;;9.03;1.23;;;12.80;99.90;;;;;;5059691;28;20460;-82
2022/09/17 06:05:36;;;;;;;5.50;1.47;;;13.00;99.90;;;;;;5055653;28;20436;-82
2022/09/17 06:08:03;;;;;;;2.40;0.90;;;13.10;99.90;;;;;;5072353;28;20460;-82
2022/09/17 06:10:29;;;;;;;7.30;1.10;;;13.30;99.90;;;;;;5058875;28;20540;-81
2022/09/17 06:12:59;;;;;;;9.73;1.97;;;13.30;99.90;;;;;;5059534;28;20949;-81
2022/09/17 06:15:27;;;;;;;3.43;1.40;;;13.30;99.90;;;;;;5052274;28;20453;-81
2022/09/17 06:17:53;;;;;;;1.63;0.70;;;13.30;99.90;;;;;;5071358;28;20580;-81
2022/09/17 06:20:20;;;;;;;6.30;1.23;;;13.80;99.90;;;;;;5079863;28;20452;-84
2022/09/17 06:22:47;;;;;;;5.70;2.33;;;14.70;99.90;;;;;;5052907;28;20456;-82
2022/09/17 06:25:14;;;;;;;5.33;1.57;;;15.70;99.90;;;;;;5054698;28;20457;-83
2022/09/17 06:27:40;;;;;;;3.50;1.70;;;17.20;96.40;;;;;;5053621;28;21011;-83
2022/09/17 06:30:07;;;;;;;3.63;1.30;;;17.20;94.10;;;;;;5054210;28;20522;-83
2022/09/17 06:32:34;;;;;;;7.03;1.70;;;16.80;94.30;;;;;;5045912;28;20448;-82
2022/09/17 06:35:01;;;;;;;3.83;1.70;;;16.70;94.50;;;;;;5055693;28;20498;-82
2022/09/17 06:37:29;;;;;;;5.37;1.50;;;16.50;95.20;;;;;;5053660;28;20999;-82
2022/09/17 06:39:57;;;;;;;2.60;0.90;;;17.10;94.70;;;;;;5053374;28;20564;-83
2022/09/17 06:42:25;;;;;;;4.27;1.10;;;17.50;93.10;;;;;;5053000;28;20530;-83
2022/09/17 06:44:52;;;;;;;3.70;1.50;;;16.80;93.20;;;;;;5054608;28;21352;-83
2022/09/17 06:47:19;;;;;;;4.70;1.60;;;16.00;94.20;;;;;;5054118;28;20480;-84
2022/09/17 06:49:46;;;;;;;10.37;2.60;;;15.40;95.80;;;;;;5050560;28;20471;-82
2022/09/17 06:52:12;;;;;;;12.03;2.40;;;15.10;96.90;;;;;;5070235;28;20827;-82
2022/09/17 06:54:39;;;;;;;4.90;1.70;;;15.20;97.40;;;;;;5058500;28;20441;-81
2022/09/17 06:57:06;;;;;;;3.20;1.73;;;15.40;96.90;;;;;;5054539;28;20502;-82
2022/09/17 06:59:33;;;;;;;2.60;1.63;;;15.10;96.80;;;;;;5050677;28;20490;-83
2022/09/17 07:01:59;;;;;;;2.73;1.30;;;14.70;97.30;;;;;;5056252;28;20492;-82
2022/09/17 07:04:26;;;;;;;4.90;1.27;;;14.40;97.90;;;;;;5056124;28;20532;-81
2022/09/17 07:06:53;;;;;;;6.23;1.67;;;14.10;98.50;;;;;;5056549;28;20448;-83
2022/09/17 07:09:20;;;;;;;4.53;2.20;;;13.90;99.00;;;;;;5064907;28;20471;-82
2022/09/17 07:11:46;;;;;;;2.20;1.30;;;13.90;99.40;;;;;;5053880;28;20465;-84
2022/09/17 07:14:13;;;;;;;3.17;1.23;;;13.80;99.30;;;;;;5072634;28;20541;-82
2022/09/17 07:16:40;;;;;;;2.90;1.67;;;13.70;99.30;;;;;;5059824;28;20440;-81
2022/09/17 07:19:07;;;;;;;3.77;1.10;;;13.70;99.60;;;;;;5051987;28;20534;-83
2022/09/17 07:21:34;;;;;;;4.83;1.20;;;13.70;99.60;;;;;;5072938;28;20467;-83
2022/09/17 07:24:01;;;;;;;3.17;1.27;;;13.70;99.60;;;;;;5059935;28;20448;-83
2022/09/17 07:26:28;;;;;;;3.80;1.83;;;14.10;99.60;;;;;;5057540;28;20436;-83
2022/09/17 07:28:57;;;;;;;3.33;1.40;;;14.90;99.10;;;;;;5055602;28;20464;-83
2022/09/17 07:31:23;;;;;;;3.20;1.10;;;15.70;96.70;;;;;;5059627;28;20483;-83
2022/09/17 07:33:50;;;;;;;2.53;1.03;;;15.30;95.90;;;;;;5060983;28;20452;-84
2022/09/17 07:36:17;;;;;;;3.47;1.10;;;14.90;96.40;;;;;;5071845;28;20521;-82
2022/09/17 07:38:45;;;;;;;4.93;1.23;;;14.60;97.20;;;;;;5059647;28;21051;-83
2022/09/17 07:41:15;;;;;;;4.03;1.40;;;14.40;97.90;;;;;;5060465;28;20472;-83
2022/09/17 07:43:42;;;;;;;1.47;1.00;;;14.40;98.30;;;;;;5055099;28;20464;-81
2022/09/17 07:46:16;;;;;;;5.37;1.73;;;14.30;98.40;;;;;;5058016;28;20456;-82
2022/09/17 07:48:44;;;;;;;3.67;1.53;;;14.30;98.60;;;;;;5058049;28;20455;-82
2022/09/17 07:51:20;;;;;;;3.03;1.37;;;14.30;98.70;;;;;;5075136;28;20476;-83
2022/09/17 07:53:49;;;;;;;3.13;1.17;;;14.30;98.80;;;;;;5052160;28;20531;-82
2022/09/17 07:56:16;;;;;;;5.00;1.20;;;14.30;98.70;;;;;;5059730;28;20452;-81
2022/09/17 07:58:42;;;;;;;6.03;1.30;;;15.30;99.00;;;;;;5062448;28;20477;-82
2022/09/17 08:01:11;;;;;;;6.67;1.50;;;16.60;96.60;;;;;;5055774;28;20468;-84
2022/09/17 08:03:39;;;;;;;6.30;1.07;;;18.80;92.90;;;;;;5066077;28;20795;-81
2022/09/17 08:06:11;;;;;;;4.97;1.43;;;19.60;88.40;;;;;;5067170;28;20440;-82
2022/09/17 08:08:39;;;;;;;4.03;2.00;;;19.70;84.00;;;;;;5050464;28;20535;-83
2022/09/17 08:11:09;;;;;;;4.77;1.47;;;19.80;85.50;;;;;;5055611;28;20484;-83
2022/09/17 08:13:36;;;;;;;3.40;1.90;;;20.00;82.90;;;;;;5059970;28;20456;-83
2022/09/17 08:16:09;;;;;;;3.20;1.37;;;20.30;80.30;;;;;;5057648;28;20444;-83
2022/09/17 08:18:35;;;;;;;3.43;1.37;;;19.70;79.80;;;;;;5067253;28;20493;-83
2022/09/17 08:21:04;;;;;;;4.63;1.17;;;19.00;82.70;;;;;;5056574;28;20533;-82
2022/09/17 08:23:34;;;;;;;3.80;1.70;;;18.40;84.40;;;;;;5059281;28;20459;-83
2022/09/17 08:26:02;;;;;;;2.07;0.97;;;17.70;86.80;;;;;;5056484;28;20448;-82
2022/09/17 08:28:30;;;;;;;5.13;1.20;;;17.40;88.70;;;;;;5053361;28;20465;-81
2022/09/17 08:31:02;;;;;;;2.70;1.03;;;17.10;90.00;;;;;;5058821;28;20488;-83
2022/09/17 08:33:34;;;;;;;7.93;1.40;;;17.00;89.60;;;;;;5072856;28;20462;-83
2022/09/17 08:36:02;;;;;;;9.90;1.87;;;16.80;90.30;;;;;;5048103;28;20453;-80
2022/09/17 08:38:33;;;;;;;2.37;1.80;;;16.50;90.60;;;;;;5055794;28;20477;-82
2022/09/17 08:41:09;;;;;;;3.30;1.60;;;16.10;91.10;;;;;;5053369;28;20473;-82
2022/09/17 08:43:48;;;;;;;2.70;1.30;;;16.00;91.60;;;;;;5056656;28;20448;-82
2022/09/17 08:46:15;;;;;;;3.57;1.40;;;15.90;91.50;;;;;;5057512;28;20447;-81
2022/09/17 08:48:51;;;;;;;3.63;1.00;;;15.90;91.90;;;;;;5052539;28;20456;-81
2022/09/17 08:51:38;;;;;;;5.00;2.73;;;15.90;91.80;;;;;;5056144;28;20468;-82
2022/09/17 08:54:19;;;;;;;2.23;1.03;;;15.90;92.20;;;;;;5070805;28;20452;-83
2022/09/17 08:56:50;;;;;;;3.90;1.30;;;16.10;91.90;;;;;;5049982;28;20529;-81
2022/09/17 08:59:28;;;;;;;3.00;0.90;;;16.00;91.80;;;;;;5056834;28;20464;-82
2022/09/17 09:02:18;;;;;;;5.50;1.93;;;15.90;92.10;;;;;;5057129;28;21016;-82
2022/09/17 09:05:09;;;;;;;8.23;1.67;;;16.00;91.80;;;;;;5049788;28;20578;-81
2022/09/17 09:07:43;;;;;;;2.70;1.07;;;16.00;91.50;;;;;;5054784;28;20448;-82
2022/09/17 09:10:24;;;;;;;3.57;1.20;;;16.10;91.80;;;;;;5078242;28;20513;-83
2022/09/17 09:12:52;;;;;;;2.93;1.33;;;16.30;91.70;;;;;;5063640;28;20440;-82
2022/09/17 09:15:30;;;;;;;4.13;1.40;;;16.10;91.50;;;;;;5065242;28;20517;-83
2022/09/17 09:18:04;;;;;;;3.40;1.10;;;16.10;91.90;;;;;;5059329;28;20437;-81
2022/09/17 09:20:46;;;;;;;1.90;1.03;;;16.30;92.00;;;;;;5061533;28;20507;-82
2022/09/17 09:23:33;;;;;;;3.23;1.10;;;16.30;91.10;;;;;;5059239;28;20478;-84
2022/09/17 09:26:17;;;;;;;2.20;0.90;;;16.30;91.60;;;;;;5055815;28;20498;-83
2022/09/17 09:29:04;;;;;;;3.13;1.87;;;16.30;91.40;;;;;;5057441;28;20464;-83
2022/09/17 09:31:47;;;;;;;4.77;1.10;;;16.20;91.40;;;;;;5035967;28;20468;-82
2022/09/17 09:34:15;;;;;;;2.23;1.30;;;16.20;90.70;;;;;;5045452;28;20576;-84
2022/09/17 09:36:41;;;;;;;6.10;1.40;;;16.20;90.60;;;;;;5055321;28;20918;-83
2022/09/17 09:39:26;;;;;;;6.00;1.20;;;16.30;90.70;;;;;;5054895;28;20484;-82
2022/09/17 09:42:30;;;;;;;15.80;5.10;;;16.40;90.30;;;;;;5051755;28;20481;-82
2022/09/17 09:45:11;;;;;;;12.40;6.63;;;16.10;90.20;;;;;;5043216;28;20498;-82
2022/09/17 09:48:24;;;;;;;1.77;1.13;;;16.00;90.70;;;;;;5053647;28;20498;-83
2022/09/17 09:51:15;;;;;;;3.53;1.20;;;17.10;86.60;;;;;;5014572;28;20477;-84
2022/09/17 09:54:06;;;;;;;3.30;1.20;;;18.50;80.50;;;;;;5050553;28;21096;-83
2022/09/17 09:56:51;;;;;;;9.23;2.10;;;19.30;76.20;;;;;;5069594;28;20453;-83
2022/09/17 09:59:18;;;;;;;3.17;1.33;;;20.00;73.50;;;;;;5052729;28;20594;-82
2022/09/17 10:01:45;;;;;;;3.50;1.73;;;20.40;72.20;;;;;;5051158;28;20476;-82
2022/09/17 10:04:21;;;;;;;2.40;1.00;;;20.40;69.40;;;;;;5058964;28;20468;-81
2022/09/17 10:07:06;;;;;;;2.77;1.30;;;19.30;71.30;;;;;;5055632;28;20440;-83
2022/09/17 10:09:35;;;;;;;2.33;1.00;;;18.70;74.70;;;;;;5056474;28;20510;-83
2022/09/17 10:12:16;;;;;;;4.40;1.10;;;18.30;75.80;;;;;;5066098;28;20566;-83
2022/09/17 10:14:49;;;;;;;2.93;1.03;;;18.30;77.20;;;;;;5054204;28;20578;-82
2022/09/17 10:17:28;;;;;;;3.90;1.33;;;18.30;76.30;;;;;;5053704;28;20436;-84
2022/09/17 10:20:04;;;;;;;1.77;1.10;;;18.30;76.90;;;;;;5039925;28;20503;-83
2022/09/17 10:22:32;;;;;;;2.20;1.33;;;18.10;75.90;;;;;;5052747;28;20914;-82
2022/09/17 10:25:01;;;;;;;6.60;1.30;;;18.00;77.40;;;;;;5058692;28;20448;-81
2022/09/17 10:27:29;;;;;;;6.23;1.27;;;18.70;76.60;;;;;;5065446;28;20501;-82
2022/09/17 10:30:08;;;;;;;3.03;1.20;;;19.40;70.90;;;;;;5052754;28;20518;-82
2022/09/17 10:32:35;;;;;;;3.97;1.00;;;19.10;70.20;;;;;;5054983;28;20444;-82
2022/09/17 10:35:14;;;;;;;2.40;0.70;;;19.20;69.60;;;;;;5070107;28;20457;-82
2022/09/17 10:37:47;;;;;;;4.53;1.13;;;19.20;66.80;;;;;;5048339;28;20463;-81
2022/09/17 10:40:17;;;;;;;2.33;1.10;;;19.50;66.80;;;;;;5056005;28;20499;-82
2022/09/17 10:42:49;;;;;;;3.87;1.33;;;19.80;63.80;;;;;;5055385;28;20529;-82
2022/09/17 10:45:24;;;;;;;3.43;1.33;;;20.00;64.20;;;;;;5053337;28;20487;-82
2022/09/17 10:47:53;;;;;;;1.00;0.70;;;19.90;60.80;;;;;;5056668;28;20445;-83
2022/09/17 10:50:28;;;;;;;3.93;0.90;;;19.30;61.20;;;;;;5059778;28;20534;-84
2022/09/17 10:52:58;;;;;;;4.80;1.10;;;19.20;62.80;;;;;;5061584;28;20509;-83
2022/09/17 10:55:25;;;;;;;4.00;1.10;;;19.20;64.50;;;;;;5073038;28;20436;-82
2022/09/17 10:58:07;;;;;;;1.50;0.90;;;19.20;67.10;;;;;;5054183;28;20445;-83
2022/09/17 11:01:09;;;;;;;3.00;1.63;;;19.40;68.80;;;;;;5055772;28;20488;-82
2022/09/17 11:03:54;;;;;;;2.23;1.20;;;19.90;67.40;;;;;;5054221;28;20518;-83
2022/09/17 11:06:46;;;;;;;3.23;1.17;;;20.50;65.00;;;;;;5059146;28;20448;-82
2022/09/17 11:09:38;;;;;;;4.53;1.03;;;20.30;63.30;;;;;;5059033;28;20475;-84
2022/09/17 11:12:20;;;;;;;2.03;1.30;;;19.80;66.80;;;;;;5062424;28;20553;-82
2022/09/17 11:15:02;;;;;;;2.10;0.90;;;19.30;71.10;;;;;;5087094;28;20542;-83
2022/09/17 11:18:05;;;;;;;3.77;0.90;;;19.30;72.20;;;;;;5075091;28;20452;-83
2022/09/17 11:20:44;;;;;;;2.57;1.00;;;19.60;71.50;;;;;;5070982;28;20572;-82
2022/09/17 11:23:41;;;;;;;1.07;0.70;;;19.60;68.80;;;;;;5073413;28;20487;-82
2022/09/17 11:26:26;;;;;;;2.97;1.00;;;19.80;66.90;;;;;;5051856;28;20429;-83
2022/09/17 11:29:20;;;;;;;0.80;0.70;;;19.70;66.60;;;;;;5058648;28;20444;-82
2022/09/17 11:32:01;;;;;;;2.10;0.90;;;19.40;67.90;;;;;;5042782;28;20510;-83
2022/09/17 11:34:36;;;;;;;2.70;1.20;;;19.30;67.00;;;;;;5057134;28;20432;-82
2022/09/17 11:37:12;;;;;;;2.80;1.00;;;19.50;66.40;;;;;;5056732;28;20482;-83
2022/09/17 11:39:48;;;;;;;2.10;0.80;;;19.40;66.50;;;;;;5056513;28;20504;-83
2022/09/17 11:42:27;;;;;;;2.20;1.33;;;19.60;66.40;;;;;;5055035;28;20969;-82
2022/09/17 11:45:01;;;;;;;1.47;0.90;;;19.90;65.70;;;;;;5055642;28;20441;-82
2022/09/17 11:47:40;;;;;;;2.10;1.00;;;20.00;65.60;;;;;;5078547;28;20454;-82
2022/09/17 11:50:15;;;;;;;1.53;0.80;;;19.80;66.10;;;;;;5056570;28;20922;-83
2022/09/17 11:52:51;;;;;;;1.93;0.73;;;19.00;67.50;;;;;;5057981;28;20440;-82
2022/09/17 11:55:20;;;;;;;4.77;0.60;;;18.30;70.80;;;;;;5054987;28;20457;-85
2022/09/17 11:57:59;;;;;;;0.83;0.60;;;17.70;74.00;;;;;;5056410;28;21020;-83
2022/09/17 12:00:30;;;;;;;1.33;0.50;;;17.40;78.20;;;;;;5055033;28;20494;-83
2022/09/17 12:03:05;;;;;;;2.00;0.97;;;17.10;82.70;;;;;;5055901;28;20441;-83
2022/09/17 12:05:36;;;;;;;1.70;0.90;;;17.00;85.30;;;;;;5055121;28;20953;-82
2022/09/17 12:08:10;;;;;;;1.80;0.97;;;17.10;88.60;;;;;;5055299;28;20901;-83
2022/09/17 12:11:01;;;;;;;1.70;0.93;;;17.40;90.50;;;;;;5058785;28;20468;-82
2022/09/17 12:13:44;;;;;;;2.33;1.07;;;17.60;90.40;;;;;;5057112;28;20498;-84
2022/09/17 12:16:32;;;;;;;2.30;1.00;;;17.90;90.80;;;;;;5058640;28;21144;-84
2022/09/17 12:19:22;;;;;;;1.83;0.70;;;18.30;88.80;;;;;;5058881;28;20456;-82
2022/09/17 12:22:08;;;;;;;0.70;0.60;;;18.40;85.20;;;;;;5057932;28;20476;-82
2022/09/17 12:24:42;;;;;;;1.77;0.70;;;19.00;84.50;;;;;;5065789;28;20452;-82
2022/09/17 12:27:48;;;;;;;0.97;0.77;;;19.50;81.60;;;;;;5072885;28;20504;-85
2022/09/17 12:30:25;;;;;;;3.37;0.87;;;20.00;77.70;;;;;;5062010;28;20472;-82
2022/09/17 12:32:59;;;;;;;1.20;0.70;;;20.00;75.10;;;;;;5073147;28;20572;-82
2022/09/17 12:35:59;;;;;;;2.60;1.10;;;19.60;73.30;;;;;;5071731;28;20519;-83
2022/09/17 12:39:04;;;;;;;2.30;1.43;;;19.40;75.00;;;;;;5057705;28;20511;-82
2022/09/17 12:41:46;;;;;;;1.43;0.70;;;18.90;76.70;;;;;;5055193;28;20495;-83
2022/09/17 12:44:34;;;;;;;1.57;1.03;;;18.60;76.60;;;;;;5058592;28;20583;-83
2022/09/17 12:47:32;;;;;;;4.40;1.80;;;18.50;77.40;;;;;;5050866;28;20515;-82
2022/09/17 12:50:08;;;;;;;2.70;0.90;;;18.30;77.90;;;;;;5060020;28;20467;-83
2022/09/17 12:53:01;;;;;;;3.03;0.90;;;18.10;79.20;;;;;;5057779;28;20490;-83
2022/09/17 12:55:53;;;;;;;1.60;0.80;;;18.00;80.40;;;;;;5050685;28;20457;-83
2022/09/17 12:58:25;;;;;;;1.40;0.77;;;17.80;81.60;;;;;;5055756;28;20451;-82
2022/09/17 13:01:21;;;;;;;3.60;0.80;;;17.70;83.70;;;;;;5072369;28;20531;-82
2022/09/17 13:03:51;;;;;;;2.63;1.00;;;17.60;85.90;;;;;;5046699;28;20469;-83
2022/09/17 13:06:56;;;;;;;3.37;1.00;;;17.40;89.70;;;;;;5058102;28;20510;-82
2022/09/17 13:09:51;;;;;;;3.70;1.30;;;17.30;91.60;;;;;;5057764;28;20453;-82
2022/09/17 13:12:58;;;;;;;5.20;1.53;;;17.30;93.80;;;;;;5064219;28;20484;-82
2022/09/17 13:15:43;;;;;;;3.63;1.50;;;17.40;94.70;;;;;;5052264;28;20486;-83
2022/09/17 13:18:38;;;;;;;1.30;1.20;;;17.30;94.70;;;;;;5073745;28;20444;-84
2022/09/17 13:21:13;;;;;;;1.20;1.10;;;17.50;93.60;;;;;;5058706;28;20522;-84